sensor_id;sensor_type;location;lat;lon;timestamp;temperature;humidity
37956;DHT22;23776;51.592;7.180;2023-11-22T00:02:01;6.80;1.00
37956;DHT22;23776;51.592;7.180;2023-11-22T00:04:27;6.80;1.00
37956;DHT22;23776;51.592;7.180;2023-11-22T00:06:53;6.70;1.00
37956;DHT22;23776;51.592;7.180;2023-11-22T00:09:18;7.50;1.00
37956;DHT22;23776;51.592;7.180;2023-11-22T00:11:47;6.80;1.00
37956;DHT22;23776;51.592;7.180;2023-11-22T00:14:13;6.80;1.00
37956;DHT22;23776;51.592;7.180;2023-11-22T00:16:38;6.80;1.00
37956;DHT22;23776;51.592;7.180;2023-11-22T00:19:05;6.80;1.00
37956;DHT22;23776;51.592;7.180;2023-11-22T00:21:32;6.80;1.00
37956;DHT22;23776;51.592;7.180;2023-11-22T00:23:57;6.70;1.00
37956;DHT22;23776;51.592;7.180;2023-11-22T00:26:23;6.70;1.00
37956;DHT22;23776;51.592;7.180;2023-11-22T00:28:49;6.70;1.00
37956;DHT22;23776;51.592;7.180;2023-11-22T00:31:15;6.80;1.00
37956;DHT22;23776;51.592;7.180;2023-11-22T00:33:41;6.80;1.00
37956;DHT22;23776;51.592;7.180;2023-11-22T00:36:07;6.80;1.00
37956;DHT22;23776;51.592;7.180;2023-11-22T00:38:34;6.70;1.00
37956;DHT22;23776;51.592;7.180;2023-11-22T00:41:01;6.70;1.00
37956;DHT22;23776;51.592;7.180;2023-11-22T00:43:30;6.70;1.00
37956;DHT22;23776;51.592;7.180;2023-11-22T00:45:56;6.60;1.00
37956;DHT22;23776;51.592;7.180;2023-11-22T00:48:22;6.60;1.00
37956;DHT22;23776;51.592;7.180;2023-11-22T00:50:48;6.50;1.00
37956;DHT22;23776;51.592;7.180;2023-11-22T00:53:13;6.40;1.00
37956;DHT22;23776;51.592;7.180;2023-11-22T00:55:40;6.40;1.00
37956;DHT22;23776;51.592;7.180;2023-11-22T00:58:05;6.30;1.00
37956;DHT22;23776;51.592;7.180;2023-11-22T01:00:33;4.50;1.00
37956;DHT22;23776;51.592;7.180;2023-11-22T01:02:58;6.30;1.00
37956;DHT22;23776;51.592;7.180;2023-11-22T01:05:24;6.30;1.00
37956;DHT22;23776;51.592;7.180;2023-11-22T01:07:49;6.20;1.00
37956;DHT22;23776;51.592;7.180;2023-11-22T01:10:15;6.20;1.00
37956;DHT22;23776;51.592;7.180;2023-11-22T01:12:41;6.10;1.00
37956;DHT22;23776;51.592;7.180;2023-11-22T01:15:09;6.00;1.00
37956;DHT22;23776;51.592;7.180;2023-11-22T01:17:35;6.00;1.00
37956;DHT22;23776;51.592;7.180;2023-11-22T01:20:01;5.90;1.00
37956;DHT22;23776;51.592;7.180;2023-11-22T01:22:28;5.80;1.00
37956;DHT22;23776;51.592;7.180;2023-11-22T01:24:54;5.70;1.00
37956;DHT22;23776;51.592;7.180;2023-11-22T01:27:19;5.70;1.00
37956;DHT22;23776;51.592;7.180;2023-11-22T01:29:45;5.70;1.00
37956;DHT22;23776;51.592;7.180;2023-11-22T01:32:11;5.60;1.00
37956;DHT22;23776;51.592;7.180;2023-11-22T01:34:36;5.60;1.00
37956;DHT22;23776;51.592;7.180;2023-11-22T01:37:02;5.60;1.00
37956;DHT22;23776;51.592;7.180;2023-11-22T01:39:28;5.60;1.00
37956;DHT22;23776;51.592;7.180;2023-11-22T01:41:54;5.60;1.00
37956;DHT22;23776;51.592;7.180;2023-11-22T01:44:19;5.50;1.00
37956;DHT22;23776;51.592;7.180;2023-11-22T01:46:45;5.50;1.00
37956;DHT22;23776;51.592;7.180;2023-11-22T01:49:11;5.40;1.00
37956;DHT22;23776;51.592;7.180;2023-11-22T01:51:38;8.50;1.00
37956;DHT22;23776;51.592;7.180;2023-11-22T01:54:10;5.40;1.00
37956;DHT22;23776;51.592;7.180;2023-11-22T01:56:37;5.30;1.00
37956;DHT22;23776;51.592;7.180;2023-11-22T01:59:04;5.30;1.00
37956;DHT22;23776;51.592;7.180;2023-11-22T02:01:30;5.20;1.00
37956;DHT22;23776;51.592;7.180;2023-11-22T02:03:56;5.20;1.00
37956;DHT22;23776;51.592;7.180;2023-11-22T02:06:23;5.20;1.00
37956;DHT22;23776;51.592;7.180;2023-11-22T02:08:48;5.10;1.00
37956;DHT22;23776;51.592;7.180;2023-11-22T02:11:18;5.10;1.00
37956;DHT22;23776;51.592;7.180;2023-11-22T02:13:48;5.00;1.00
37956;DHT22;23776;51.592;7.180;2023-11-22T02:16:15;5.00;1.00
37956;DHT22;23776;51.592;7.180;2023-11-22T02:18:43;5.00;1.00
37956;DHT22;23776;51.592;7.180;2023-11-22T02:21:09;5.00;1.00
37956;DHT22;23776;51.592;7.180;2023-11-22T02:23:36;5.00;1.00
37956;DHT22;23776;51.592;7.180;2023-11-22T02:26:01;4.90;1.00
37956;DHT22;23776;51.592;7.180;2023-11-22T02:28:27;4.90;1.00
37956;DHT22;23776;51.592;7.180;2023-11-22T02:30:53;4.90;1.00
37956;DHT22;23776;51.592;7.180;2023-11-22T02:33:20;4.80;1.00
37956;DHT22;23776;51.592;7.180;2023-11-22T02:35:45;4.80;1.00
37956;DHT22;23776;51.592;7.180;2023-11-22T02:38:11;4.80;1.00
37956;DHT22;23776;51.592;7.180;2023-11-22T02:40:37;4.80;1.00
37956;DHT22;23776;51.592;7.180;2023-11-22T02:43:02;4.70;1.00
37956;DHT22;23776;51.592;7.180;2023-11-22T02:45:33;4.70;1.00
37956;DHT22;23776;51.592;7.180;2023-11-22T02:47:58;4.70;1.00
37956;DHT22;23776;51.592;7.180;2023-11-22T02:50:27;4.60;1.00
37956;DHT22;23776;51.592;7.180;2023-11-22T02:52:53;4.50;1.00
37956;DHT22;23776;51.592;7.180;2023-11-22T02:55:18;4.50;1.00
37956;DHT22;23776;51.592;7.180;2023-11-22T02:57:45;4.50;1.00
37956;DHT22;23776;51.592;7.180;2023-11-22T03:00:11;4.50;1.00
37956;DHT22;23776;51.592;7.180;2023-11-22T03:02:43;4.50;1.00
37956;DHT22;23776;51.592;7.180;2023-11-22T03:05:08;4.50;1.00
37956;DHT22;23776;51.592;7.180;2023-11-22T03:07:38;4.50;1.00
37956;DHT22;23776;51.592;7.180;2023-11-22T03:10:04;4.50;1.00
37956;DHT22;23776;51.592;7.180;2023-11-22T03:12:30;4.50;1.00
37956;DHT22;23776;51.592;7.180;2023-11-22T03:14:56;4.40;1.00
37956;DHT22;23776;51.592;7.180;2023-11-22T03:17:26;4.40;1.00
37956;DHT22;23776;51.592;7.180;2023-11-22T03:19:54;4.80;1.00
37956;DHT22;23776;51.592;7.180;2023-11-22T03:22:21;4.40;1.00
37956;DHT22;23776;51.592;7.180;2023-11-22T03:24:46;4.30;1.00
37956;DHT22;23776;51.592;7.180;2023-11-22T03:27:13;4.30;1.00
37956;DHT22;23776;51.592;7.180;2023-11-22T03:29:38;4.40;1.00
37956;DHT22;23776;51.592;7.180;2023-11-22T03:32:04;4.10;1.00
37956;DHT22;23776;51.592;7.180;2023-11-22T03:34:30;4.10;1.00
37956;DHT22;23776;51.592;7.180;2023-11-22T03:36:55;4.10;1.00
37956;DHT22;23776;51.592;7.180;2023-11-22T03:39:21;1.10;1.00
37956;DHT22;23776;51.592;7.180;2023-11-22T03:41:47;4.10;1.00
37956;DHT22;23776;51.592;7.180;2023-11-22T03:44:13;4.00;1.00
37956;DHT22;23776;51.592;7.180;2023-11-22T03:46:39;4.00;1.00
37956;DHT22;23776;51.592;7.180;2023-11-22T03:49:05;4.00;1.00
37956;DHT22;23776;51.592;7.180;2023-11-22T03:51:32;4.00;1.00
37956;DHT22;23776;51.592;7.180;2023-11-22T03:53:58;4.00;1.00
37956;DHT22;23776;51.592;7.180;2023-11-22T03:56:24;3.90;1.00
37956;DHT22;23776;51.592;7.180;2023-11-22T03:58:50;3.90;1.00
37956;DHT22;23776;51.592;7.180;2023-11-22T04:01:16;3.80;1.00
37956;DHT22;23776;51.592;7.180;2023-11-22T04:03:42;3.90;1.00
37956;DHT22;23776;51.592;7.180;2023-11-22T04:06:08;3.90;1.00
37956;DHT22;23776;51.592;7.180;2023-11-22T04:08:33;3.90;1.00
37956;DHT22;23776;51.592;7.180;2023-11-22T04:10:59;3.80;1.00
37956;DHT22;23776;51.592;7.180;2023-11-22T04:13:24;3.80;1.00
37956;DHT22;23776;51.592;7.180;2023-11-22T04:15:51;3.80;1.00
37956;DHT22;23776;51.592;7.180;2023-11-22T04:18:16;3.80;1.00
37956;DHT22;23776;51.592;7.180;2023-11-22T04:20:42;3.80;1.00
37956;DHT22;23776;51.592;7.180;2023-11-22T04:23:08;3.90;1.00
37956;DHT22;23776;51.592;7.180;2023-11-22T04:25:36;3.80;1.00
37956;DHT22;23776;51.592;7.180;2023-11-22T04:28:02;3.80;1.00
37956;DHT22;23776;51.592;7.180;2023-11-22T04:30:28;3.70;1.00
37956;DHT22;23776;51.592;7.180;2023-11-22T04:32:53;3.80;1.00
37956;DHT22;23776;51.592;7.180;2023-11-22T04:35:19;3.70;1.00
37956;DHT22;23776;51.592;7.180;2023-11-22T04:37:44;3.70;1.00
37956;DHT22;23776;51.592;7.180;2023-11-22T04:40:13;3.60;1.00
37956;DHT22;23776;51.592;7.180;2023-11-22T04:42:40;3.70;1.00
37956;DHT22;23776;51.592;7.180;2023-11-22T04:45:06;3.70;1.00
37956;DHT22;23776;51.592;7.180;2023-11-22T04:47:32;3.60;1.00
37956;DHT22;23776;51.592;7.180;2023-11-22T04:49:58;3.60;1.00
37956;DHT22;23776;51.592;7.180;2023-11-22T04:52:24;3.60;1.00
37956;DHT22;23776;51.592;7.180;2023-11-22T04:54:50;3.60;1.00
37956;DHT22;23776;51.592;7.180;2023-11-22T04:57:15;3.50;1.00
37956;DHT22;23776;51.592;7.180;2023-11-22T04:59:41;3.60;1.00
37956;DHT22;23776;51.592;7.180;2023-11-22T05:02:07;3.50;1.00
37956;DHT22;23776;51.592;7.180;2023-11-22T05:04:33;3.60;1.00
37956;DHT22;23776;51.592;7.180;2023-11-22T05:06:59;3.50;1.00
37956;DHT22;23776;51.592;7.180;2023-11-22T05:09:24;3.50;1.00
37956;DHT22;23776;51.592;7.180;2023-11-22T05:11:50;3.50;1.00
37956;DHT22;23776;51.592;7.180;2023-11-22T05:14:17;3.50;1.00
37956;DHT22;23776;51.592;7.180;2023-11-22T05:16:43;3.50;1.00
37956;DHT22;23776;51.592;7.180;2023-11-22T05:19:08;3.60;1.00
37956;DHT22;23776;51.592;7.180;2023-11-22T05:21:34;3.50;1.00
37956;DHT22;23776;51.592;7.180;2023-11-22T05:24:00;3.50;1.00
37956;DHT22;23776;51.592;7.180;2023-11-22T05:26:25;3.40;1.00
37956;DHT22;23776;51.592;7.180;2023-11-22T05:28:52;3.40;1.00
37956;DHT22;23776;51.592;7.180;2023-11-22T05:31:20;3.40;1.00
37956;DHT22;23776;51.592;7.180;2023-11-22T05:33:46;3.40;1.00
37956;DHT22;23776;51.592;7.180;2023-11-22T05:36:11;3.30;1.00
37956;DHT22;23776;51.592;7.180;2023-11-22T05:38:37;3.40;1.00
37956;DHT22;23776;51.592;7.180;2023-11-22T05:41:03;3.40;1.00
37956;DHT22;23776;51.592;7.180;2023-11-22T05:43:29;3.30;1.00
37956;DHT22;23776;51.592;7.180;2023-11-22T05:45:55;3.30;1.00
37956;DHT22;23776;51.592;7.180;2023-11-22T05:48:20;3.30;1.00
37956;DHT22;23776;51.592;7.180;2023-11-22T05:50:47;3.40;1.00
37956;DHT22;23776;51.592;7.180;2023-11-22T05:53:13;3.20;1.00
37956;DHT22;23776;51.592;7.180;2023-11-22T05:55:48;3.20;1.00
37956;DHT22;23776;51.592;7.180;2023-11-22T05:58:14;3.10;1.00
37956;DHT22;23776;51.592;7.180;2023-11-22T06:00:51;3.20;1.00
37956;DHT22;23776;51.592;7.180;2023-11-22T06:03:16;3.10;1.00
37956;DHT22;23776;51.592;7.180;2023-11-22T06:05:42;3.00;1.00
37956;DHT22;23776;51.592;7.180;2023-11-22T06:08:07;3.00;1.00
37956;DHT22;23776;51.592;7.180;2023-11-22T06:10:34;2.90;1.00
37956;DHT22;23776;51.592;7.180;2023-11-22T06:13:00;2.90;1.00
37956;DHT22;23776;51.592;7.180;2023-11-22T06:15:26;2.80;1.00
37956;DHT22;23776;51.592;7.180;2023-11-22T06:17:51;2.80;1.00
37956;DHT22;23776;51.592;7.180;2023-11-22T06:20:17;2.80;1.00
37956;DHT22;23776;51.592;7.180;2023-11-22T06:22:43;2.70;1.00
37956;DHT22;23776;51.592;7.180;2023-11-22T06:25:10;2.70;1.00
37956;DHT22;23776;51.592;7.180;2023-11-22T06:27:38;2.70;1.00
37956;DHT22;23776;51.592;7.180;2023-11-22T06:30:05;2.70;1.00
37956;DHT22;23776;51.592;7.180;2023-11-22T06:32:32;2.70;1.00
37956;DHT22;23776;51.592;7.180;2023-11-22T06:34:58;2.60;1.00
37956;DHT22;23776;51.592;7.180;2023-11-22T06:37:23;2.60;1.00
37956;DHT22;23776;51.592;7.180;2023-11-22T06:39:49;2.60;1.00
37956;DHT22;23776;51.592;7.180;2023-11-22T06:42:16;2.60;1.00
37956;DHT22;23776;51.592;7.180;2023-11-22T06:44:42;2.60;1.00
37956;DHT22;23776;51.592;7.180;2023-11-22T06:47:08;2.60;1.00
37956;DHT22;23776;51.592;7.180;2023-11-22T06:49:33;2.60;1.00
37956;DHT22;23776;51.592;7.180;2023-11-22T06:51:59;2.60;1.00
37956;DHT22;23776;51.592;7.180;2023-11-22T06:54:25;2.60;1.00
37956;DHT22;23776;51.592;7.180;2023-11-22T06:56:51;2.50;1.00
37956;DHT22;23776;51.592;7.180;2023-11-22T06:59:17;2.60;1.00
37956;DHT22;23776;51.592;7.180;2023-11-22T07:01:44;2.60;1.00
37956;DHT22;23776;51.592;7.180;2023-11-22T07:04:09;2.50;1.00
37956;DHT22;23776;51.592;7.180;2023-11-22T07:06:35;2.50;1.00
37956;DHT22;23776;51.592;7.180;2023-11-22T07:09:05;2.50;1.00
37956;DHT22;23776;51.592;7.180;2023-11-22T07:11:34;2.50;1.00
37956;DHT22;23776;51.592;7.180;2023-11-22T07:14:00;2.50;1.00
37956;DHT22;23776;51.592;7.180;2023-11-22T07:16:26;2.50;1.00
37956;DHT22;23776;51.592;7.180;2023-11-22T07:18:52;2.40;1.00
37956;DHT22;23776;51.592;7.180;2023-11-22T07:21:17;2.40;1.00
37956;DHT22;23776;51.592;7.180;2023-11-22T07:23:43;2.40;1.00
37956;DHT22;23776;51.592;7.180;2023-11-22T07:26:10;2.40;1.00
37956;DHT22;23776;51.592;7.180;2023-11-22T07:28:36;2.40;1.00
37956;DHT22;23776;51.592;7.180;2023-11-22T07:31:02;2.40;1.00
37956;DHT22;23776;51.592;7.180;2023-11-22T07:33:31;2.50;1.00
37956;DHT22;23776;51.592;7.180;2023-11-22T07:35:57;2.40;1.00
37956;DHT22;23776;51.592;7.180;2023-11-22T07:38:24;2.40;1.00
37956;DHT22;23776;51.592;7.180;2023-11-22T07:40:50;2.30;1.00
37956;DHT22;23776;51.592;7.180;2023-11-22T07:43:16;2.40;1.00
37956;DHT22;23776;51.592;7.180;2023-11-22T07:45:42;2.40;1.00
37956;DHT22;23776;51.592;7.180;2023-11-22T07:48:10;2.40;1.00
37956;DHT22;23776;51.592;7.180;2023-11-22T07:50:37;2.30;1.00
37956;DHT22;23776;51.592;7.180;2023-11-22T07:53:04;2.40;1.00
37956;DHT22;23776;51.592;7.180;2023-11-22T07:55:30;2.40;1.00
37956;DHT22;23776;51.592;7.180;2023-11-22T07:57:57;2.40;1.00
37956;DHT22;23776;51.592;7.180;2023-11-22T08:00:23;2.40;1.00
37956;DHT22;23776;51.592;7.180;2023-11-22T08:02:49;2.60;1.00
37956;DHT22;23776;51.592;7.180;2023-11-22T08:05:16;2.50;1.00
37956;DHT22;23776;51.592;7.180;2023-11-22T08:07:42;2.70;1.00
37956;DHT22;23776;51.592;7.180;2023-11-22T08:10:10;2.90;1.00
37956;DHT22;23776;51.592;7.180;2023-11-22T08:12:47;2.90;1.00
37956;DHT22;23776;51.592;7.180;2023-11-22T08:15:14;3.00;1.00
37956;DHT22;23776;51.592;7.180;2023-11-22T08:17:40;3.10;1.00
37956;DHT22;23776;51.592;7.180;2023-11-22T08:20:07;3.10;1.00
37956;DHT22;23776;51.592;7.180;2023-11-22T08:22:37;3.20;1.00
37956;DHT22;23776;51.592;7.180;2023-11-22T08:25:04;3.20;1.00
37956;DHT22;23776;51.592;7.180;2023-11-22T08:27:31;3.20;1.00
37956;DHT22;23776;51.592;7.180;2023-11-22T08:29:57;3.20;1.00
37956;DHT22;23776;51.592;7.180;2023-11-22T08:32:23;3.30;1.00
37956;DHT22;23776;51.592;7.180;2023-11-22T08:34:53;3.40;1.00
37956;DHT22;23776;51.592;7.180;2023-11-22T08:37:18;3.40;1.00
37956;DHT22;23776;51.592;7.180;2023-11-22T08:39:44;3.50;1.00
37956;DHT22;23776;51.592;7.180;2023-11-22T08:42:09;3.60;1.00
37956;DHT22;23776;51.592;7.180;2023-11-22T08:44:36;0.80;1.00
37956;DHT22;23776;51.592;7.180;2023-11-22T08:47:02;3.60;1.00
37956;DHT22;23776;51.592;7.180;2023-11-22T08:49:28;3.70;1.00
37956;DHT22;23776;51.592;7.180;2023-11-22T08:51:54;5.00;1.00
37956;DHT22;23776;51.592;7.180;2023-11-22T08:54:20;3.80;1.00
37956;DHT22;23776;51.592;7.180;2023-11-22T08:56:45;3.90;1.00
37956;DHT22;23776;51.592;7.180;2023-11-22T08:59:12;3.90;1.00
37956;DHT22;23776;51.592;7.180;2023-11-22T09:01:38;3.90;1.00
37956;DHT22;23776;51.592;7.180;2023-11-22T09:04:04;4.00;1.00
37956;DHT22;23776;51.592;7.180;2023-11-22T09:06:30;4.10;1.00
37956;DHT22;23776;51.592;7.180;2023-11-22T09:08:55;4.10;1.00
37956;DHT22;23776;51.592;7.180;2023-11-22T09:11:22;4.20;1.00
37956;DHT22;23776;51.592;7.180;2023-11-22T09:13:48;4.30;1.00
37956;DHT22;23776;51.592;7.180;2023-11-22T09:16:15;4.50;1.00
37956;DHT22;23776;51.592;7.180;2023-11-22T09:18:42;4.60;1.00
37956;DHT22;23776;51.592;7.180;2023-11-22T09:21:08;5.70;1.00
37956;DHT22;23776;51.592;7.180;2023-11-22T09:23:35;4.70;99.90
37956;DHT22;23776;51.592;7.180;2023-11-22T09:26:02;4.70;99.90
37956;DHT22;23776;51.592;7.180;2023-11-22T09:28:28;4.80;99.90
37956;DHT22;23776;51.592;7.180;2023-11-22T09:30:54;4.90;99.90
37956;DHT22;23776;51.592;7.180;2023-11-22T09:33:26;5.00;99.90
37956;DHT22;23776;51.592;7.180;2023-11-22T09:35:52;5.10;99.90
37956;DHT22;23776;51.592;7.180;2023-11-22T09:38:17;5.20;99.90
37956;DHT22;23776;51.592;7.180;2023-11-22T09:40:48;5.30;99.90
37956;DHT22;23776;51.592;7.180;2023-11-22T09:43:18;5.30;1.00
37956;DHT22;23776;51.592;7.180;2023-11-22T09:45:48;5.40;99.90
37956;DHT22;23776;51.592;7.180;2023-11-22T09:48:16;5.40;99.90
37956;DHT22;23776;51.592;7.180;2023-11-22T09:51:04;5.50;1.00
37956;DHT22;23776;51.592;7.180;2023-11-22T09:56:09;5.70;99.90
37956;DHT22;23776;51.592;7.180;2023-11-22T09:58:41;5.80;99.90
37956;DHT22;23776;51.592;7.180;2023-11-22T10:01:13;5.80;99.90
37956;DHT22;23776;51.592;7.180;2023-11-22T10:03:39;5.90;99.90
37956;DHT22;23776;51.592;7.180;2023-11-22T10:06:05;6.00;99.90
37956;DHT22;23776;51.592;7.180;2023-11-22T10:08:32;6.00;84.40
37956;DHT22;23776;51.592;7.180;2023-11-22T10:10:59;6.10;99.90
37956;DHT22;23776;51.592;7.180;2023-11-22T10:13:25;6.10;94.30
37956;DHT22;23776;51.592;7.180;2023-11-22T10:15:51;6.10;82.30
37956;DHT22;23776;51.592;7.180;2023-11-22T10:18:18;6.10;99.90
37956;DHT22;23776;51.592;7.180;2023-11-22T10:20:45;6.20;99.90
37956;DHT22;23776;51.592;7.180;2023-11-22T10:23:13;6.20;99.90
37956;DHT22;23776;51.592;7.180;2023-11-22T10:25:50;6.20;99.90
37956;DHT22;23776;51.592;7.180;2023-11-22T10:28:21;6.30;21.40
37956;DHT22;23776;51.592;7.180;2023-11-22T10:30:47;6.40;99.90
37956;DHT22;23776;51.592;7.180;2023-11-22T10:33:14;6.40;1.00
37956;DHT22;23776;51.592;7.180;2023-11-22T10:35:48;6.40;1.00
37956;DHT22;23776;51.592;7.180;2023-11-22T10:38:17;6.50;4.80
37956;DHT22;23776;51.592;7.180;2023-11-22T10:40:44;6.50;99.90
37956;DHT22;23776;51.592;7.180;2023-11-22T10:43:14;6.70;99.90
37956;DHT22;23776;51.592;7.180;2023-11-22T10:45:44;6.70;99.90
37956;DHT22;23776;51.592;7.180;2023-11-22T10:48:16;6.90;99.90
37956;DHT22;23776;51.592;7.180;2023-11-22T10:50:43;7.10;99.90
37956;DHT22;23776;51.592;7.180;2023-11-22T10:53:12;7.20;1.00
37956;DHT22;23776;51.592;7.180;2023-11-22T10:55:48;7.20;1.00
37956;DHT22;23776;51.592;7.180;2023-11-22T10:58:15;7.60;99.90
37956;DHT22;23776;51.592;7.180;2023-11-22T11:00:41;7.40;99.90
37956;DHT22;23776;51.592;7.180;2023-11-22T11:03:13;7.70;99.90
37956;DHT22;23776;51.592;7.180;2023-11-22T11:06:04;7.70;99.90
37956;DHT22;23776;51.592;7.180;2023-11-22T11:08:33;7.80;1.00
37956;DHT22;23776;51.592;7.180;2023-11-22T11:11:01;7.90;99.90
37956;DHT22;23776;51.592;7.180;2023-11-22T11:13:29;7.60;99.90
37956;DHT22;23776;51.592;7.180;2023-11-22T11:15:56;7.80;99.90
37956;DHT22;23776;51.592;7.180;2023-11-22T11:18:22;8.00;99.90
37956;DHT22;23776;51.592;7.180;2023-11-22T11:20:55;8.00;99.90
37956;DHT22;23776;51.592;7.180;2023-11-22T11:23:22;8.10;99.90
37956;DHT22;23776;51.592;7.180;2023-11-22T11:25:58;8.20;99.90
37956;DHT22;23776;51.592;7.180;2023-11-22T11:28:25;8.30;99.90
37956;DHT22;23776;51.592;7.180;2023-11-22T11:30:52;8.40;99.90
37956;DHT22;23776;51.592;7.180;2023-11-22T11:33:33;8.60;99.90
37956;DHT22;23776;51.592;7.180;2023-11-22T11:36:01;8.50;99.90
37956;DHT22;23776;51.592;7.180;2023-11-22T11:38:34;8.50;99.90
37956;DHT22;23776;51.592;7.180;2023-11-22T11:41:10;8.60;99.90
37956;DHT22;23776;51.592;7.180;2023-11-22T11:43:43;8.60;99.90
37956;DHT22;23776;51.592;7.180;2023-11-22T11:46:10;8.70;99.90
37956;DHT22;23776;51.592;7.180;2023-11-22T11:48:36;8.80;99.90
37956;DHT22;23776;51.592;7.180;2023-11-22T11:51:02;9.00;99.90
37956;DHT22;23776;51.592;7.180;2023-11-22T11:53:27;9.20;99.90
37956;DHT22;23776;51.592;7.180;2023-11-22T11:55:54;9.40;68.00
37956;DHT22;23776;51.592;7.180;2023-11-22T11:58:20;9.40;55.50
37956;DHT22;23776;51.592;7.180;2023-11-22T12:00:46;9.20;1.00
37956;DHT22;23776;51.592;7.180;2023-11-22T12:03:11;9.00;1.00
37956;DHT22;23776;51.592;7.180;2023-11-22T12:05:40;8.90;46.30
37956;DHT22;23776;51.592;7.180;2023-11-22T12:08:05;8.50;1.00
37956;DHT22;23776;51.592;7.180;2023-11-22T12:10:31;8.20;1.00
37956;DHT22;23776;51.592;7.180;2023-11-22T12:12:57;7.80;99.90
37956;DHT22;23776;51.592;7.180;2023-11-22T12:15:24;7.80;99.90
37956;DHT22;23776;51.592;7.180;2023-11-22T12:17:50;7.80;99.90
37956;DHT22;23776;51.592;7.180;2023-11-22T12:20:22;7.50;81.60
37956;DHT22;23776;51.592;7.180;2023-11-22T12:22:48;7.40;70.50
37956;DHT22;23776;51.592;7.180;2023-11-22T12:25:14;7.40;99.90
37956;DHT22;23776;51.592;7.180;2023-11-22T12:27:43;7.50;99.90
37956;DHT22;23776;51.592;7.180;2023-11-22T12:32:54;7.60;1.00
37956;DHT22;23776;51.592;7.180;2023-11-22T12:35:19;7.70;1.00
37956;DHT22;23776;51.592;7.180;2023-11-22T12:37:45;7.80;1.00
37956;DHT22;23776;51.592;7.180;2023-11-22T12:40:12;8.00;1.00
37956;DHT22;23776;51.592;7.180;2023-11-22T12:42:49;6.30;1.00
37956;DHT22;23776;51.592;7.180;2023-11-22T12:45:22;8.40;99.90
37956;DHT22;23776;51.592;7.180;2023-11-22T12:47:49;8.60;1.00
37956;DHT22;23776;51.592;7.180;2023-11-22T12:50:34;8.60;99.90
37956;DHT22;23776;51.592;7.180;2023-11-22T12:53:11;9.00;99.90
37956;DHT22;23776;51.592;7.180;2023-11-22T12:55:44;9.00;99.90
37956;DHT22;23776;51.592;7.180;2023-11-22T12:58:11;9.00;99.90
37956;DHT22;23776;51.592;7.180;2023-11-22T13:00:40;9.10;99.90
37956;DHT22;23776;51.592;7.180;2023-11-22T13:03:10;9.00;99.90
37956;DHT22;23776;51.592;7.180;2023-11-22T13:05:36;9.00;99.90
37956;DHT22;23776;51.592;7.180;2023-11-22T13:08:02;9.10;99.90
37956;DHT22;23776;51.592;7.180;2023-11-22T13:10:29;9.20;99.90
37956;DHT22;23776;51.592;7.180;2023-11-22T13:12:56;9.40;99.90
37956;DHT22;23776;51.592;7.180;2023-11-22T13:15:22;9.40;99.90
37956;DHT22;23776;51.592;7.180;2023-11-22T13:17:54;9.50;99.90
37956;DHT22;23776;51.592;7.180;2023-11-22T13:20:24;9.40;99.90
37956;DHT22;23776;51.592;7.180;2023-11-22T13:22:52;9.40;99.90
37956;DHT22;23776;51.592;7.180;2023-11-22T13:25:17;9.20;99.90
37956;DHT22;23776;51.592;7.180;2023-11-22T13:27:47;9.20;99.90
37956;DHT22;23776;51.592;7.180;2023-11-22T13:30:14;9.00;99.90
37956;DHT22;23776;51.592;7.180;2023-11-22T13:32:40;8.90;99.90
37956;DHT22;23776;51.592;7.180;2023-11-22T13:35:08;8.80;99.90
37956;DHT22;23776;51.592;7.180;2023-11-22T13:37:49;8.70;99.90
37956;DHT22;23776;51.592;7.180;2023-11-22T13:40:16;8.60;99.90
37956;DHT22;23776;51.592;7.180;2023-11-22T13:42:44;8.40;99.90
37956;DHT22;23776;51.592;7.180;2023-11-22T13:45:11;8.30;99.90
37956;DHT22;23776;51.592;7.180;2023-11-22T13:47:43;8.00;99.90
37956;DHT22;23776;51.592;7.180;2023-11-22T13:50:10;7.80;99.90
37956;DHT22;23776;51.592;7.180;2023-11-22T13:52:36;7.90;99.90
37956;DHT22;23776;51.592;7.180;2023-11-22T13:55:02;7.90;99.90
37956;DHT22;23776;51.592;7.180;2023-11-22T13:57:31;7.90;99.90
37956;DHT22;23776;51.592;7.180;2023-11-22T13:59:57;7.90;99.90
37956;DHT22;23776;51.592;7.180;2023-11-22T14:02:24;7.90;99.90
37956;DHT22;23776;51.592;7.180;2023-11-22T14:04:49;7.80;99.90
37956;DHT22;23776;51.592;7.180;2023-11-22T14:07:15;7.90;99.90
37956;DHT22;23776;51.592;7.180;2023-11-22T14:09:40;7.70;99.90
37956;DHT22;23776;51.592;7.180;2023-11-22T14:12:06;7.60;99.90
37956;DHT22;23776;51.592;7.180;2023-11-22T14:14:32;7.60;99.90
37956;DHT22;23776;51.592;7.180;2023-11-22T14:16:57;7.60;99.90
37956;DHT22;23776;51.592;7.180;2023-11-22T14:19:23;7.50;99.90
37956;DHT22;23776;51.592;7.180;2023-11-22T14:21:49;7.50;1.00
37956;DHT22;23776;51.592;7.180;2023-11-22T14:24:15;7.50;99.90
37956;DHT22;23776;51.592;7.180;2023-11-22T14:26:40;7.40;1.00
37956;DHT22;23776;51.592;7.180;2023-11-22T14:29:06;7.30;1.00
37956;DHT22;23776;51.592;7.180;2023-11-22T14:31:32;7.20;1.00
37956;DHT22;23776;51.592;7.180;2023-11-22T14:33:58;7.20;1.00
37956;DHT22;23776;51.592;7.180;2023-11-22T14:36:24;7.20;1.00
37956;DHT22;23776;51.592;7.180;2023-11-22T14:38:49;7.20;1.00
37956;DHT22;23776;51.592;7.180;2023-11-22T14:41:20;7.10;1.00
37956;DHT22;23776;51.592;7.180;2023-11-22T14:43:46;7.10;4.90
37956;DHT22;23776;51.592;7.180;2023-11-22T14:46:12;7.00;68.30
37956;DHT22;23776;51.592;7.180;2023-11-22T14:48:38;7.00;1.00
37956;DHT22;23776;51.592;7.180;2023-11-22T14:51:03;6.90;1.00
37956;DHT22;23776;51.592;7.180;2023-11-22T14:53:29;6.90;12.10
37956;DHT22;23776;51.592;7.180;2023-11-22T14:55:55;6.90;99.90
37956;DHT22;23776;51.592;7.180;2023-11-22T14:58:21;6.90;99.90
37956;DHT22;23776;51.592;7.180;2023-11-22T15:00:46;6.80;99.90
37956;DHT22;23776;51.592;7.180;2023-11-22T15:03:12;6.90;47.40
37956;DHT22;23776;51.592;7.180;2023-11-22T15:05:38;6.90;1.00
37956;DHT22;23776;51.592;7.180;2023-11-22T15:08:03;6.80;1.00
37956;DHT22;23776;51.592;7.180;2023-11-22T15:10:29;6.80;1.00
37956;DHT22;23776;51.592;7.180;2023-11-22T15:12:55;6.70;1.00
37956;DHT22;23776;51.592;7.180;2023-11-22T15:15:20;6.70;1.00
37956;DHT22;23776;51.592;7.180;2023-11-22T15:17:49;6.80;59.70
37956;DHT22;23776;51.592;7.180;2023-11-22T15:20:15;6.70;75.90
37956;DHT22;23776;51.592;7.180;2023-11-22T15:22:41;6.70;99.90
37956;DHT22;23776;51.592;7.180;2023-11-22T15:25:08;6.70;99.90
37956;DHT22;23776;51.592;7.180;2023-11-22T15:27:35;6.70;99.90
37956;DHT22;23776;51.592;7.180;2023-11-22T15:30:01;6.70;1.00
37956;DHT22;23776;51.592;7.180;2023-11-22T15:32:27;6.70;1.00
37956;DHT22;23776;51.592;7.180;2023-11-22T15:34:53;6.70;99.90
37956;DHT22;23776;51.592;7.180;2023-11-22T15:37:19;6.60;99.90
37956;DHT22;23776;51.592;7.180;2023-11-22T15:39:45;6.60;99.90
37956;DHT22;23776;51.592;7.180;2023-11-22T15:42:10;6.60;99.90
37956;DHT22;23776;51.592;7.180;2023-11-22T15:44:37;6.60;99.90
37956;DHT22;23776;51.592;7.180;2023-11-22T15:47:02;6.50;99.90
37956;DHT22;23776;51.592;7.180;2023-11-22T15:49:33;6.50;99.90
37956;DHT22;23776;51.592;7.180;2023-11-22T15:51:59;6.50;99.90
37956;DHT22;23776;51.592;7.180;2023-11-22T15:54:26;6.50;36.60
37956;DHT22;23776;51.592;7.180;2023-11-22T15:56:52;6.50;99.90
37956;DHT22;23776;51.592;7.180;2023-11-22T15:59:18;6.50;99.90
37956;DHT22;23776;51.592;7.180;2023-11-22T16:01:43;6.50;1.00